createdAt,value
2023-03-28T00:00:44.531Z,1.20
2023-03-28T00:03:14.549Z,1.30
2023-03-28T00:05:42.775Z,1.30
2023-03-28T00:08:11.914Z,1.50
2023-03-28T00:10:42.396Z,1.30
2023-03-28T00:13:10.432Z,1.30
2023-03-28T00:15:40.110Z,1.07
2023-03-28T00:18:08.193Z,1.53
2023-03-28T00:20:40.293Z,1.37
2023-03-28T00:23:09.563Z,1.30
2023-03-28T00:25:40.222Z,1.20
2023-03-28T00:28:13.585Z,1.03
2023-03-28T00:30:43.993Z,1.13
2023-03-28T00:33:14.385Z,1.33
2023-03-28T00:35:43.377Z,1.37
2023-03-28T00:38:13.852Z,1.13
2023-03-28T00:40:41.959Z,1.67
2023-03-28T00:43:14.435Z,1.13
2023-03-28T00:45:43.001Z,1.57
2023-03-28T00:48:15.554Z,1.10
2023-03-28T00:50:48.744Z,1.53
2023-03-28T00:53:19.498Z,1.90
2023-03-28T00:55:51.797Z,1.40
2023-03-28T00:58:24.144Z,1.00
2023-03-28T01:00:52.046Z,1.40
2023-03-28T01:03:22.454Z,1.10
2023-03-28T01:05:52.140Z,1.20
2023-03-28T01:08:22.076Z,1.20
2023-03-28T01:10:50.750Z,1.33
2023-03-28T01:13:22.649Z,1.30
2023-03-28T01:15:51.319Z,1.37
2023-03-28T01:18:22.525Z,1.80
2023-03-28T01:21:15.376Z,1.50
2023-03-28T01:24:15.082Z,1.63
2023-03-28T01:26:50.467Z,1.30
2023-03-28T01:29:44.387Z,1.60
2023-03-28T01:32:51.506Z,1.00
2023-03-28T01:35:44.809Z,1.33
2023-03-28T01:38:21.676Z,1.33
2023-03-28T01:40:58.165Z,1.10
2023-03-28T01:43:33.891Z,1.40
2023-03-28T01:46:08.953Z,1.30
2023-03-28T01:48:44.889Z,1.20
2023-03-28T01:51:21.042Z,2.27
2023-03-28T01:53:58.485Z,1.00
2023-03-28T01:56:37.789Z,1.33
2023-03-28T01:59:13.995Z,1.40
2023-03-28T02:01:48.525Z,1.40
2023-03-28T02:04:21.357Z,1.47
2023-03-28T02:06:51.158Z,1.43
2023-03-28T02:09:24.916Z,1.30
2023-03-28T02:11:59.154Z,1.30
2023-03-28T02:14:31.278Z,1.17
2023-03-28T02:17:04.694Z,0.93
2023-03-28T02:19:37.766Z,1.30
2023-03-28T02:22:16.467Z,1.63
2023-03-28T02:24:50.403Z,1.60
2023-03-28T02:27:18.291Z,1.30
2023-03-28T02:29:46.007Z,1.30
2023-03-28T02:32:14.669Z,1.47
2023-03-28T02:34:42.913Z,1.60
2023-03-28T02:37:22.095Z,1.30
2023-03-28T02:40:03.723Z,1.43
2023-03-28T02:42:59.523Z,1.67
2023-03-28T02:45:52.401Z,0.93
2023-03-28T02:48:31.027Z,1.83
2023-03-28T02:51:10.740Z,1.73
2023-03-28T02:53:44.769Z,1.37
2023-03-28T02:56:19.405Z,1.53
2023-03-28T02:58:52.247Z,1.30
2023-03-28T03:01:21.101Z,1.73
2023-03-28T03:03:49.954Z,1.30
2023-03-28T03:06:17.988Z,1.70
2023-03-28T03:08:45.893Z,1.60
2023-03-28T03:11:15.468Z,1.70
2023-03-28T03:13:46.866Z,1.50
2023-03-28T03:16:14.819Z,1.40
2023-03-28T03:18:42.588Z,1.23
2023-03-28T03:21:10.364Z,1.30
2023-03-28T03:23:38.197Z,1.30
2023-03-28T03:26:06.271Z,1.37
2023-03-28T03:28:35.273Z,1.30
2023-03-28T03:31:03.201Z,1.37
2023-03-28T03:33:32.376Z,1.40
2023-03-28T03:36:01.005Z,1.70
2023-03-28T03:38:28.862Z,1.20
2023-03-28T03:40:56.482Z,1.37
2023-03-28T03:43:24.125Z,1.30
2023-03-28T03:45:53.122Z,1.17
2023-03-28T03:48:20.805Z,1.40
2023-03-28T03:50:53.016Z,1.70
2023-03-28T03:53:20.819Z,1.47
2023-03-28T03:55:49.602Z,1.30
2023-03-28T03:58:18.659Z,1.60
2023-03-28T04:00:48.994Z,1.33
2023-03-28T04:03:24.020Z,1.60
2023-03-28T04:05:54.969Z,2.63
2023-03-28T04:08:23.163Z,1.90
2023-03-28T04:10:50.880Z,1.43
2023-03-28T04:13:18.580Z,1.27
2023-03-28T04:15:47.733Z,1.43
2023-03-28T04:18:17.695Z,1.63
2023-03-28T04:20:53.908Z,1.40
2023-03-28T04:23:25.662Z,1.90
2023-03-28T04:25:55.536Z,2.10
2023-03-28T04:28:25.496Z,1.57
2023-03-28T04:30:58.157Z,1.50
2023-03-28T04:33:27.329Z,1.53
2023-03-28T04:36:00.681Z,1.60
2023-03-28T04:38:29.429Z,2.13
2023-03-28T04:40:58.715Z,1.80
2023-03-28T04:43:26.513Z,1.80
2023-03-28T04:45:54.876Z,1.40
2023-03-28T04:48:29.936Z,1.33
2023-03-28T04:50:58.904Z,1.40
2023-03-28T04:53:26.661Z,2.10
2023-03-28T04:55:54.428Z,1.33
2023-03-28T04:58:24.150Z,1.00
2023-03-28T05:00:52.283Z,1.53
2023-03-28T05:03:22.574Z,1.23
2023-03-28T05:05:52.396Z,1.87
2023-03-28T05:08:23.627Z,1.33
2023-03-28T05:10:51.988Z,1.97
2023-03-28T05:13:19.842Z,1.77
2023-03-28T05:15:48.611Z,1.83
2023-03-28T05:18:16.558Z,1.70
2023-03-28T05:20:44.427Z,2.17
2023-03-28T05:23:12.143Z,2.13
2023-03-28T05:25:41.351Z,2.00
2023-03-28T05:28:09.072Z,2.50
2023-03-28T05:30:36.965Z,2.00
2023-03-28T05:33:04.761Z,2.47
2023-03-28T05:35:37.337Z,2.33
2023-03-28T05:38:05.102Z,2.60
2023-03-28T05:40:33.255Z,2.30
2023-03-28T05:43:02.361Z,2.57
2023-03-28T05:45:30.058Z,2.67
2023-03-28T05:47:57.839Z,2.90
2023-03-28T05:50:26.378Z,3.17
2023-03-28T05:52:54.229Z,3.60
2023-03-28T05:55:21.875Z,3.07
2023-03-28T05:57:49.557Z,2.90
2023-03-28T06:00:20.201Z,2.67
2023-03-28T06:02:50.267Z,2.90
2023-03-28T06:05:18.916Z,2.30
2023-03-28T06:07:46.656Z,2.53
2023-03-28T06:10:15.703Z,2.60
2023-03-28T06:12:43.341Z,2.37
2023-03-28T06:15:12.562Z,2.27
2023-03-28T06:17:41.752Z,3.00
2023-03-28T06:20:10.764Z,2.67
2023-03-28T06:22:38.630Z,3.20
2023-03-28T06:25:07.373Z,3.30
2023-03-28T06:27:35.539Z,2.77
2023-03-28T06:30:04.557Z,3.10
2023-03-28T06:32:32.579Z,2.53
2023-03-28T06:35:01.655Z,3.13
2023-03-28T06:37:29.287Z,3.10
2023-03-28T06:39:57.460Z,3.10
2023-03-28T06:42:25.224Z,2.80
2023-03-28T06:44:52.929Z,2.50
2023-03-28T06:47:20.698Z,2.77
2023-03-28T06:49:48.317Z,2.43
2023-03-28T06:52:17.432Z,2.23
2023-03-28T06:54:47.906Z,2.07
2023-03-28T06:57:16.496Z,2.23
2023-03-28T06:59:44.384Z,2.30
2023-03-28T07:02:12.792Z,1.90
2023-03-28T07:04:40.733Z,2.70
2023-03-28T07:07:09.527Z,1.97
2023-03-28T07:09:38.713Z,2.20
2023-03-28T07:12:07.139Z,2.57
2023-03-28T07:14:34.884Z,2.23
2023-03-28T07:17:02.731Z,2.63
2023-03-28T07:19:54.036Z,2.90
2023-03-28T07:22:21.645Z,2.90
2023-03-28T07:24:50.664Z,2.73
2023-03-28T07:27:18.362Z,2.83
2023-03-28T07:29:46.611Z,2.60
2023-03-28T07:32:14.362Z,2.90
2023-03-28T07:34:42.104Z,3.27
2023-03-28T07:37:10.816Z,2.90
2023-03-28T07:39:39.918Z,2.70
2023-03-28T07:42:11.427Z,3.77
2023-03-28T07:44:41.030Z,3.07
2023-03-28T07:47:10.532Z,2.70
2023-03-28T07:49:39.576Z,2.63
2023-03-28T07:52:07.383Z,2.30
2023-03-28T07:54:35.051Z,2.57
2023-03-28T07:57:03.104Z,2.07
2023-03-28T07:59:32.229Z,2.40
2023-03-28T08:01:59.909Z,1.90
2023-03-28T08:04:27.756Z,1.77
2023-03-28T08:06:56.136Z,1.80
2023-03-28T08:09:23.820Z,1.60
2023-03-28T08:11:51.581Z,1.63
2023-03-28T08:14:19.783Z,1.43
2023-03-28T08:16:48.920Z,1.67
2023-03-28T08:19:16.746Z,1.90
2023-03-28T08:21:44.635Z,1.67
2023-03-28T08:24:19.523Z,1.73
2023-03-28T08:26:53.615Z,1.47
2023-03-28T08:29:21.620Z,1.43
2023-03-28T08:31:50.741Z,1.70
2023-03-28T08:34:18.532Z,1.37
2023-03-28T08:36:47.040Z,2.03
2023-03-28T08:39:14.680Z,1.40
2023-03-28T08:41:58.373Z,1.40
2023-03-28T08:44:41.606Z,1.77
2023-03-28T08:47:15.624Z,2.40
2023-03-28T08:49:47.137Z,1.77
2023-03-28T08:52:17.010Z,1.80
2023-03-28T08:54:48.755Z,1.80
2023-03-28T08:57:20.991Z,1.10
2023-03-28T08:59:56.583Z,1.70
2023-03-28T09:02:29.681Z,1.40
2023-03-28T09:05:11.967Z,1.63
2023-03-28T09:07:55.644Z,1.67
2023-03-28T09:10:29.875Z,1.63
2023-03-28T09:13:07.315Z,1.50
2023-03-28T09:15:47.401Z,1.13
2023-03-28T09:18:37.272Z,1.45
2023-03-28T09:21:14.333Z,1.40
2023-03-28T09:23:55.152Z,1.70
2023-03-28T09:26:26.176Z,1.70
2023-03-28T09:29:00.609Z,2.80
2023-03-28T09:31:33.583Z,1.52
2023-03-28T09:34:04.260Z,2.15
2023-03-28T09:36:45.344Z,1.92
2023-03-28T09:39:24.925Z,2.00
2023-03-28T09:41:58.282Z,2.28
2023-03-28T09:44:33.182Z,1.27
2023-03-28T09:47:12.119Z,1.30
2023-03-28T09:49:41.608Z,1.27
2023-03-28T09:52:16.486Z,1.52
2023-03-28T09:54:44.521Z,1.20
2023-03-28T09:57:12.328Z,1.70
2023-03-28T09:59:40.603Z,1.48
2023-03-28T10:02:27.558Z,1.65
2023-03-28T10:04:56.661Z,1.58
2023-03-28T10:07:33.162Z,1.33
2023-03-28T10:10:10.826Z,1.50
2023-03-28T10:12:41.563Z,1.83
2023-03-28T10:15:32.129Z,1.40
2023-03-28T10:18:02.549Z,1.98
2023-03-28T10:20:36.917Z,1.63
2023-03-28T10:23:06.450Z,1.25
2023-03-28T10:25:38.941Z,1.50
2023-03-28T10:28:08.722Z,1.33
2023-03-28T10:30:37.976Z,1.25
2023-03-28T10:33:21.239Z,2.03
2023-03-28T10:35:57.369Z,1.98
2023-03-28T10:38:28.110Z,1.48
2023-03-28T10:41:02.451Z,1.38
2023-03-28T10:43:36.093Z,1.98
2023-03-28T10:46:08.735Z,2.17
2023-03-28T10:48:39.337Z,1.95
2023-03-28T10:51:16.560Z,1.77
2023-03-28T10:54:22.540Z,1.50
2023-03-28T10:56:55.367Z,1.70
2023-03-28T10:59:47.117Z,1.17
2023-03-28T11:02:40.759Z,1.25
2023-03-28T11:05:28.954Z,1.67
2023-03-28T11:08:03.270Z,2.97
2023-03-28T11:10:39.938Z,1.60
2023-03-28T11:13:24.325Z,1.40
2023-03-28T11:15:59.981Z,1.30
2023-03-28T11:18:53.942Z,1.48
2023-03-28T11:21:30.629Z,1.30
2023-03-28T11:24:08.705Z,1.70
2023-03-28T11:26:45.285Z,1.38
2023-03-28T11:29:42.147Z,1.55
2023-03-28T11:32:18.807Z,1.80
2023-03-28T11:34:58.259Z,1.55
2023-03-28T11:37:29.614Z,1.30
2023-03-28T11:40:05.305Z,1.38
2023-03-28T11:42:41.823Z,1.90
2023-03-28T11:45:28.084Z,1.48
2023-03-28T11:48:12.579Z,1.80
2023-03-28T11:50:50.400Z,1.42
2023-03-28T11:53:26.183Z,1.40
2023-03-28T11:56:02.782Z,2.35
2023-03-28T11:58:34.169Z,1.42
2023-03-28T12:01:07.854Z,1.50
2023-03-28T12:03:43.505Z,1.90
2023-03-28T12:06:17.939Z,1.45
2023-03-28T12:08:53.432Z,1.80
2023-03-28T12:11:29.452Z,1.52
2023-03-28T12:14:11.689Z,5.10
2023-03-28T12:16:46.766Z,1.73
2023-03-28T12:19:21.097Z,2.23
2023-03-28T12:21:52.553Z,1.87
2023-03-28T12:24:27.697Z,2.07
2023-03-28T12:27:07.583Z,1.60
2023-03-28T12:29:41.901Z,1.80
2023-03-28T12:32:26.606Z,1.75
2023-03-28T12:35:01.350Z,1.73
2023-03-28T12:37:33.325Z,1.80
2023-03-28T12:40:19.971Z,2.00
2023-03-28T12:42:51.485Z,1.80
2023-03-28T12:45:22.950Z,1.73
2023-03-28T12:47:55.741Z,2.13
2023-03-28T12:50:29.487Z,1.33
2023-03-28T12:52:59.930Z,1.70
2023-03-28T12:55:45.510Z,1.98
2023-03-28T12:58:30.717Z,2.00
2023-03-28T13:01:21.425Z,1.75
2023-03-28T13:04:02.415Z,2.10
2023-03-28T13:06:40.891Z,2.30
2023-03-28T13:09:53.506Z,2.10
2023-03-28T13:12:41.657Z,2.00
2023-03-28T13:15:37.305Z,2.33
2023-03-28T13:18:29.814Z,1.60
2023-03-28T13:20:57.723Z,1.67
2023-03-28T13:23:32.478Z,1.50
2023-03-28T13:26:02.579Z,1.60
2023-03-28T13:28:34.091Z,1.47
2023-03-28T13:31:09.861Z,1.40
2023-03-28T13:33:44.921Z,1.60
2023-03-28T13:36:21.388Z,1.90
2023-03-28T13:38:51.133Z,1.50
2023-03-28T13:41:55.075Z,1.37
2023-03-28T13:44:26.249Z,1.50
2023-03-28T13:46:57.563Z,1.80
2023-03-28T13:49:37.200Z,1.57
2023-03-28T13:52:09.989Z,1.30
2023-03-28T13:54:39.783Z,1.80
2023-03-28T13:57:13.665Z,1.87
2023-03-28T13:59:52.160Z,1.77
2023-03-28T14:02:23.490Z,2.10
2023-03-28T14:04:53.991Z,2.07
2023-03-28T14:07:27.087Z,1.50
2023-03-28T14:09:56.154Z,1.80
2023-03-28T14:12:25.659Z,1.90
2023-03-28T14:14:55.821Z,2.23
2023-03-28T14:17:30.420Z,1.87
2023-03-28T14:20:00.115Z,1.70
2023-03-28T14:22:29.996Z,1.53
2023-03-28T14:25:01.917Z,1.97
2023-03-28T14:27:36.528Z,1.50
2023-03-28T14:30:17.183Z,1.40
2023-03-28T14:32:58.676Z,1.57
2023-03-28T14:35:29.239Z,1.53
2023-03-28T14:37:58.509Z,1.60
2023-03-28T14:40:33.308Z,1.90
2023-03-28T14:43:04.338Z,1.70
2023-03-28T14:45:38.230Z,2.00
2023-03-28T14:48:13.611Z,1.50
2023-03-28T14:50:43.043Z,1.17
2023-03-28T14:53:19.594Z,1.27
2023-03-28T14:55:49.369Z,1.20
2023-03-28T14:58:18.946Z,1.17
2023-03-28T15:00:51.054Z,1.40
2023-03-28T15:03:23.864Z,1.30
2023-03-28T15:05:54.553Z,1.17
2023-03-28T15:08:28.168Z,1.33
2023-03-28T15:10:56.856Z,1.53
2023-03-28T15:13:32.438Z,1.40
2023-03-28T15:16:00.575Z,1.17
2023-03-28T15:18:33.943Z,1.10
2023-03-28T15:21:04.629Z,1.10
2023-03-28T15:23:35.495Z,1.40
2023-03-28T15:26:08.344Z,1.10
2023-03-28T15:28:37.331Z,1.70
2023-03-28T15:31:05.332Z,1.07
2023-03-28T15:33:36.246Z,1.50
2023-03-28T15:36:08.641Z,1.30
2023-03-28T15:38:41.202Z,1.50
2023-03-28T15:41:11.712Z,1.27
2023-03-28T15:43:42.597Z,1.63
2023-03-28T15:46:12.782Z,1.40
2023-03-28T15:48:43.170Z,1.60
2023-03-28T15:51:16.299Z,1.80
2023-03-28T15:53:46.116Z,2.13
2023-03-28T15:56:22.651Z,1.60
2023-03-28T15:58:50.819Z,1.67
2023-03-28T16:01:22.693Z,1.70
2023-03-28T16:03:52.884Z,1.63
2023-03-28T16:06:32.283Z,1.90
2023-03-28T16:09:14.582Z,1.63
2023-03-28T16:11:42.601Z,1.80
2023-03-28T16:14:14.548Z,1.33
2023-03-28T16:16:42.409Z,1.57
2023-03-28T16:19:18.512Z,1.53
2023-03-28T16:21:46.368Z,1.70
2023-03-28T16:24:14.239Z,2.10
2023-03-28T16:26:42.042Z,1.97
2023-03-28T16:29:11.190Z,2.50
2023-03-28T16:31:39.628Z,2.67
2023-03-28T16:34:09.855Z,2.27
2023-03-28T16:36:39.518Z,2.30
2023-03-28T16:39:09.484Z,2.30
2023-03-28T16:41:37.273Z,2.13
2023-03-28T16:44:05.643Z,1.67
2023-03-28T16:46:33.775Z,1.60
2023-03-28T16:49:01.667Z,1.80
2023-03-28T16:51:29.324Z,2.07
2023-03-28T16:53:58.507Z,2.43
2023-03-28T16:56:27.496Z,2.30
2023-03-28T16:58:55.594Z,2.20
2023-03-28T17:01:23.453Z,2.00
2023-03-28T17:03:52.640Z,2.00
2023-03-28T17:06:20.851Z,2.17
2023-03-28T17:08:49.482Z,2.23
2023-03-28T17:11:18.990Z,2.40
2023-03-28T17:13:47.474Z,2.10
2023-03-28T17:16:15.291Z,1.90
2023-03-28T17:18:43.017Z,2.43
2023-03-28T17:21:13.241Z,2.93
2023-03-28T17:23:42.802Z,2.63
2023-03-28T17:26:12.122Z,2.30
2023-03-28T17:28:43.630Z,2.80
2023-03-28T17:31:13.387Z,2.40
2023-03-28T17:33:41.313Z,3.03
2023-03-28T17:36:21.910Z,2.90
2023-03-28T17:38:50.430Z,2.33
2023-03-28T17:41:18.124Z,2.37
2023-03-28T17:43:47.337Z,2.13
2023-03-28T17:46:15.143Z,2.57
2023-03-28T17:48:43.283Z,2.33
2023-03-28T17:51:12.809Z,2.90
2023-03-28T17:53:42.634Z,3.27
2023-03-28T17:56:12.425Z,3.33
2023-03-28T17:58:40.241Z,3.67
2023-03-28T18:01:11.652Z,4.13
2023-03-28T18:03:40.145Z,2.83
2023-03-28T18:06:09.443Z,2.83
2023-03-28T18:08:37.588Z,3.00
2023-03-28T18:11:07.838Z,6.13
2023-03-28T18:13:36.546Z,9.00
2023-03-28T18:16:05.366Z,6.00
2023-03-28T18:18:36.081Z,3.50
2023-03-28T18:21:04.249Z,3.23
2023-03-28T18:23:32.096Z,3.20
2023-03-28T18:26:00.128Z,2.97
2023-03-28T18:28:28.411Z,2.97
2023-03-28T18:30:57.263Z,2.63
2023-03-28T18:33:25.049Z,2.17
2023-03-28T18:35:54.097Z,2.43
2023-03-28T18:38:21.869Z,2.60
2023-03-28T18:40:53.328Z,2.53
2023-03-28T18:43:22.236Z,2.50
2023-03-28T18:45:54.548Z,2.33
2023-03-28T18:48:25.394Z,3.00
2023-03-28T18:50:54.530Z,3.67
2023-03-28T18:53:22.410Z,3.70
2023-03-28T18:55:51.720Z,3.00
2023-03-28T18:58:19.731Z,2.73
2023-03-28T19:00:47.515Z,2.90
2023-03-28T19:03:17.604Z,3.37
2023-03-28T19:05:45.646Z,3.10
2023-03-28T19:08:14.641Z,3.17
2023-03-28T19:10:46.473Z,3.60
2023-03-28T19:13:14.102Z,4.10
2023-03-28T19:15:42.116Z,3.73
2023-03-28T19:18:09.989Z,4.23
2023-03-28T19:20:38.122Z,3.80
2023-03-28T19:23:05.848Z,4.87
2023-03-28T19:25:34.905Z,4.27
2023-03-28T19:28:04.036Z,3.73
2023-03-28T19:30:31.637Z,3.83
2023-03-28T19:32:59.527Z,4.00
2023-03-28T19:35:27.235Z,3.50
2023-03-28T19:37:54.878Z,3.03
2023-03-28T19:40:22.619Z,3.80
2023-03-28T19:42:51.627Z,3.70
2023-03-28T19:45:19.300Z,3.57
2023-03-28T19:47:46.956Z,3.30
2023-03-28T19:50:14.599Z,3.40
2023-03-28T19:52:42.609Z,3.50
2023-03-28T19:55:11.032Z,3.53
2023-03-28T19:57:38.677Z,4.20
2023-03-28T20:00:09.862Z,3.03
2023-03-28T20:02:37.965Z,3.23
2023-03-28T20:05:06.073Z,3.53
2023-03-28T20:07:33.776Z,3.67
2023-03-28T20:10:01.520Z,3.50
2023-03-28T20:12:29.140Z,3.03
2023-03-28T20:14:57.100Z,3.20
2023-03-28T20:17:26.206Z,3.50
2023-03-28T20:19:53.795Z,3.73
2023-03-28T20:22:24.376Z,2.90
2023-03-28T20:24:52.023Z,2.87
2023-03-28T20:27:19.712Z,3.03
2023-03-28T20:29:47.388Z,3.20
2023-03-28T20:32:15.258Z,2.90
2023-03-28T20:34:44.260Z,2.10
2023-03-28T20:37:14.059Z,2.90
2023-03-28T20:39:41.848Z,2.50
2023-03-28T20:42:09.516Z,2.73
2023-03-28T20:44:38.961Z,1.90
2023-03-28T20:47:08.492Z,2.60
2023-03-28T20:49:38.163Z,1.67
2023-03-28T20:52:07.741Z,2.30
2023-03-28T20:54:35.481Z,1.90
2023-03-28T20:57:03.120Z,2.13
2023-03-28T20:59:30.769Z,1.70
2023-03-28T21:01:58.783Z,2.30
2023-03-28T21:04:27.652Z,2.20
2023-03-28T21:06:57.498Z,1.90
2023-03-28T21:09:26.562Z,2.07
2023-03-28T21:11:54.169Z,1.93
2023-03-28T21:14:21.802Z,1.60
2023-03-28T21:16:49.896Z,2.20
2023-03-28T21:19:19.217Z,2.00
2023-03-28T21:21:47.147Z,1.70
2023-03-28T21:24:28.838Z,1.63
2023-03-28T21:26:57.786Z,2.20
2023-03-28T21:29:25.509Z,2.20
2023-03-28T21:31:53.566Z,1.90
2023-03-28T21:34:30.441Z,1.97
2023-03-28T21:36:58.518Z,1.83
2023-03-28T21:39:27.016Z,1.90
2023-03-28T21:41:54.942Z,2.00
2023-03-28T21:44:24.185Z,2.10
2023-03-28T21:46:52.099Z,1.83
2023-03-28T21:49:20.325Z,1.90
2023-03-28T21:51:48.068Z,2.07
2023-03-28T21:54:16.315Z,2.37
2023-03-28T21:56:43.953Z,1.90
2023-03-28T21:59:11.728Z,2.37
2023-03-28T22:01:40.785Z,1.87
2023-03-28T22:04:08.474Z,1.70
2023-03-28T22:06:36.209Z,1.90
2023-03-28T22:09:05.003Z,2.10
2023-03-28T22:11:35.043Z,2.10
2023-03-28T22:14:02.910Z,2.20
2023-03-28T22:16:34.029Z,1.60
2023-03-28T22:19:03.136Z,1.50
2023-03-28T22:21:31.496Z,1.10
2023-03-28T22:24:10.325Z,1.40
2023-03-28T22:26:38.011Z,1.20
2023-03-28T22:29:06.040Z,1.30
2023-03-28T22:31:34.171Z,1.50
2023-03-28T22:34:03.241Z,1.20
2023-03-28T22:36:31.300Z,1.60
2023-03-28T22:38:59.103Z,1.30
2023-03-28T22:41:31.840Z,1.50
2023-03-28T22:43:59.813Z,1.70
2023-03-28T22:46:27.637Z,1.67
2023-03-28T22:48:58.249Z,1.67
2023-03-28T22:51:30.010Z,1.63
2023-03-28T22:54:01.692Z,1.37
2023-03-28T22:56:29.280Z,1.50
2023-03-28T22:59:01.198Z,1.80
2023-03-28T23:01:29.745Z,1.80
2023-03-28T23:03:57.343Z,1.30
2023-03-28T23:06:25.076Z,1.47
2023-03-28T23:08:54.061Z,1.47
2023-03-28T23:11:22.200Z,1.50
2023-03-28T23:13:49.906Z,1.50
2023-03-28T23:16:17.682Z,1.90
2023-03-28T23:18:45.367Z,1.33
2023-03-28T23:21:13.087Z,1.80
2023-03-28T23:23:41.675Z,1.70
2023-03-28T23:26:10.704Z,1.70
2023-03-28T23:28:38.324Z,1.60
2023-03-28T23:31:07.074Z,2.20
2023-03-28T23:33:34.699Z,2.20
2023-03-28T23:36:02.492Z,1.83
2023-03-28T23:38:30.182Z,2.10
2023-03-28T23:40:58.068Z,1.90
2023-03-28T23:43:27.051Z,2.17
2023-03-28T23:45:56.779Z,1.73
2023-03-28T23:48:24.468Z,2.23
2023-03-28T23:50:52.152Z,2.10
2023-03-28T23:53:19.860Z,2.00
2023-03-28T23:55:47.505Z,2.30
2023-03-28T23:58:15.201Z,1.80
